sensor_id;sensor_type;location;lat;lon;timestamp;P1;durP1;ratioP1;P2;durP2;ratioP2
21166;SDS011;10741;52.272;9.580;2022-07-22T00:02:24;7.23;;;6.53;;
21166;SDS011;10741;52.272;9.580;2022-07-22T00:04:50;6.17;;;5.67;;
21166;SDS011;10741;52.272;9.580;2022-07-22T00:07:16;7.60;;;6.77;;
21166;SDS011;10741;52.272;9.580;2022-07-22T00:09:41;7.00;;;6.30;;
21166;SDS011;10741;52.272;9.580;2022-07-22T00:12:10;7.20;;;6.60;;
21166;SDS011;10741;52.272;9.580;2022-07-22T00:14:36;9.53;;;7.53;;
21166;SDS011;10741;52.272;9.580;2022-07-22T00:17:01;8.90;;;7.60;;
21166;SDS011;10741;52.272;9.580;2022-07-22T00:19:28;7.30;;;6.67;;
21166;SDS011;10741;52.272;9.580;2022-07-22T00:21:54;8.60;;;6.73;;
21166;SDS011;10741;52.272;9.580;2022-07-22T00:24:21;8.27;;;7.57;;
21166;SDS011;10741;52.272;9.580;2022-07-22T00:26:46;8.67;;;7.90;;
21166;SDS011;10741;52.272;9.580;2022-07-22T00:29:12;9.10;;;8.20;;
21166;SDS011;10741;52.272;9.580;2022-07-22T00:31:38;7.40;;;6.57;;
21166;SDS011;10741;52.272;9.580;2022-07-22T00:34:04;8.13;;;7.43;;
21166;SDS011;10741;52.272;9.580;2022-07-22T00:36:30;7.73;;;7.03;;
21166;SDS011;10741;52.272;9.580;2022-07-22T00:38:59;7.10;;;6.50;;
21166;SDS011;10741;52.272;9.580;2022-07-22T00:41:25;7.53;;;6.93;;
21166;SDS011;10741;52.272;9.580;2022-07-22T00:43:55;7.47;;;6.70;;
21166;SDS011;10741;52.272;9.580;2022-07-22T00:46:27;7.53;;;6.93;;
21166;SDS011;10741;52.272;9.580;2022-07-22T00:48:54;6.70;;;6.10;;
21166;SDS011;10741;52.272;9.580;2022-07-22T00:51:20;7.70;;;7.10;;
21166;SDS011;10741;52.272;9.580;2022-07-22T00:53:48;7.17;;;6.57;;
21166;SDS011;10741;52.272;9.580;2022-07-22T00:56:15;7.20;;;6.60;;
21166;SDS011;10741;52.272;9.580;2022-07-22T00:58:42;10.47;;;7.50;;
21166;SDS011;10741;52.272;9.580;2022-07-22T01:01:08;9.00;;;8.10;;
21166;SDS011;10741;52.272;9.580;2022-07-22T01:03:34;9.30;;;8.47;;
21166;SDS011;10741;52.272;9.580;2022-07-22T01:06:00;8.53;;;7.53;;
21166;SDS011;10741;52.272;9.580;2022-07-22T01:08:26;8.13;;;7.43;;
21166;SDS011;10741;52.272;9.580;2022-07-22T01:10:52;8.80;;;8.00;;
21166;SDS011;10741;52.272;9.580;2022-07-22T01:13:18;8.90;;;8.00;;
21166;SDS011;10741;52.272;9.580;2022-07-22T01:15:44;8.17;;;7.37;;
21166;SDS011;10741;52.272;9.580;2022-07-22T01:18:10;7.60;;;6.80;;
21166;SDS011;10741;52.272;9.580;2022-07-22T01:20:36;7.90;;;7.20;;
21166;SDS011;10741;52.272;9.580;2022-07-22T01:23:01;8.60;;;7.80;;
21166;SDS011;10741;52.272;9.580;2022-07-22T01:25:27;7.43;;;6.80;;
21166;SDS011;10741;52.272;9.580;2022-07-22T01:27:53;7.57;;;6.87;;
21166;SDS011;10741;52.272;9.580;2022-07-22T01:30:19;7.43;;;6.80;;
21166;SDS011;10741;52.272;9.580;2022-07-22T01:35:35;7.47;;;6.77;;
21166;SDS011;10741;52.272;9.580;2022-07-22T01:38:01;7.03;;;6.33;;
21166;SDS011;10741;52.272;9.580;2022-07-22T01:40:27;6.60;;;6.10;;
21166;SDS011;10741;52.272;9.580;2022-07-22T01:42:53;7.57;;;6.87;;
21166;SDS011;10741;52.272;9.580;2022-07-22T01:45:19;6.73;;;6.13;;
21166;SDS011;10741;52.272;9.580;2022-07-22T01:47:45;6.33;;;5.60;;
21166;SDS011;10741;52.272;9.580;2022-07-22T01:50:11;6.27;;;5.77;;
21166;SDS011;10741;52.272;9.580;2022-07-22T01:52:37;9.23;;;8.43;;
21166;SDS011;10741;52.272;9.580;2022-07-22T01:55:05;11.73;;;10.63;;
21166;SDS011;10741;52.272;9.580;2022-07-22T01:57:33;11.30;;;10.20;;
21166;SDS011;10741;52.272;9.580;2022-07-22T01:59:59;10.90;;;9.80;;
21166;SDS011;10741;52.272;9.580;2022-07-22T02:02:24;11.70;;;10.57;;
21166;SDS011;10741;52.272;9.580;2022-07-22T02:04:50;12.40;;;11.10;;
21166;SDS011;10741;52.272;9.580;2022-07-22T02:07:16;11.53;;;10.33;;
21166;SDS011;10741;52.272;9.580;2022-07-22T02:09:42;12.30;;;11.17;;
21166;SDS011;10741;52.272;9.580;2022-07-22T02:12:07;11.77;;;10.57;;
21166;SDS011;10741;52.272;9.580;2022-07-22T02:14:33;10.37;;;9.37;;
21166;SDS011;10741;52.272;9.580;2022-07-22T02:16:59;11.73;;;10.53;;
21166;SDS011;10741;52.272;9.580;2022-07-22T02:19:25;10.73;;;9.63;;
21166;SDS011;10741;52.272;9.580;2022-07-22T02:21:51;10.47;;;8.80;;
21166;SDS011;10741;52.272;9.580;2022-07-22T02:24:16;12.70;;;9.40;;
21166;SDS011;10741;52.272;9.580;2022-07-22T02:26:42;9.90;;;7.90;;
21166;SDS011;10741;52.272;9.580;2022-07-22T02:29:08;11.43;;;7.53;;
21166;SDS011;10741;52.272;9.580;2022-07-22T02:31:34;9.93;;;8.73;;
21166;SDS011;10741;52.272;9.580;2022-07-22T02:33:59;8.17;;;7.23;;
21166;SDS011;10741;52.272;9.580;2022-07-22T02:36:25;9.07;;;7.83;;
21166;SDS011;10741;52.272;9.580;2022-07-22T02:38:51;8.90;;;7.63;;
21166;SDS011;10741;52.272;9.580;2022-07-22T02:41:17;9.40;;;8.43;;
21166;SDS011;10741;52.272;9.580;2022-07-22T02:43:42;9.67;;;8.13;;
21166;SDS011;10741;52.272;9.580;2022-07-22T02:46:08;8.50;;;7.70;;
21166;SDS011;10741;52.272;9.580;2022-07-22T02:48:34;9.27;;;7.97;;
21166;SDS011;10741;52.272;9.580;2022-07-22T02:51:00;10.33;;;7.83;;
21166;SDS011;10741;52.272;9.580;2022-07-22T02:53:25;9.23;;;7.90;;
21166;SDS011;10741;52.272;9.580;2022-07-22T02:55:53;10.03;;;8.80;;
21166;SDS011;10741;52.272;9.580;2022-07-22T02:58:19;8.80;;;7.23;;
21166;SDS011;10741;52.272;9.580;2022-07-22T03:00:45;11.27;;;8.40;;
21166;SDS011;10741;52.272;9.580;2022-07-22T03:03:11;13.10;;;8.87;;
21166;SDS011;10741;52.272;9.580;2022-07-22T03:05:37;9.60;;;8.60;;
21166;SDS011;10741;52.272;9.580;2022-07-22T03:08:02;11.80;;;8.77;;
21166;SDS011;10741;52.272;9.580;2022-07-22T03:10:28;8.67;;;7.77;;
21166;SDS011;10741;52.272;9.580;2022-07-22T03:12:54;8.20;;;7.47;;
21166;SDS011;10741;52.272;9.580;2022-07-22T03:15:20;7.27;;;6.57;;
21166;SDS011;10741;52.272;9.580;2022-07-22T03:17:45;7.70;;;7.00;;
21166;SDS011;10741;52.272;9.580;2022-07-22T03:20:12;7.33;;;6.67;;
21166;SDS011;10741;52.272;9.580;2022-07-22T03:22:37;8.40;;;7.47;;
21166;SDS011;10741;52.272;9.580;2022-07-22T03:25:03;6.53;;;5.93;;
21166;SDS011;10741;52.272;9.580;2022-07-22T03:27:30;7.67;;;6.87;;
21166;SDS011;10741;52.272;9.580;2022-07-22T03:29:55;7.70;;;6.90;;
21166;SDS011;10741;52.272;9.580;2022-07-22T03:32:21;8.23;;;7.43;;
21166;SDS011;10741;52.272;9.580;2022-07-22T03:34:47;7.57;;;6.87;;
21166;SDS011;10741;52.272;9.580;2022-07-22T03:37:13;7.20;;;6.50;;
21166;SDS011;10741;52.272;9.580;2022-07-22T03:39:38;7.93;;;6.33;;
21166;SDS011;10741;52.272;9.580;2022-07-22T03:42:05;7.93;;;7.20;;
21166;SDS011;10741;52.272;9.580;2022-07-22T03:44:31;7.03;;;6.33;;
21166;SDS011;10741;52.272;9.580;2022-07-22T03:46:56;8.43;;;6.53;;
21166;SDS011;10741;52.272;9.580;2022-07-22T03:49:22;7.67;;;6.87;;
21166;SDS011;10741;52.272;9.580;2022-07-22T03:51:48;6.67;;;6.03;;
21166;SDS011;10741;52.272;9.580;2022-07-22T03:54:14;7.93;;;6.13;;
21166;SDS011;10741;52.272;9.580;2022-07-22T03:56:39;7.53;;;6.33;;
21166;SDS011;10741;52.272;9.580;2022-07-22T03:59:06;6.33;;;5.73;;
21166;SDS011;10741;52.272;9.580;2022-07-22T04:01:32;5.87;;;5.27;;
21166;SDS011;10741;52.272;9.580;2022-07-22T04:03:57;6.80;;;5.40;;
21166;SDS011;10741;52.272;9.580;2022-07-22T04:06:23;4.97;;;4.47;;
21166;SDS011;10741;52.272;9.580;2022-07-22T04:08:49;5.93;;;5.40;;
21166;SDS011;10741;52.272;9.580;2022-07-22T04:11:15;6.20;;;5.63;;
21166;SDS011;10741;52.272;9.580;2022-07-22T04:13:41;6.80;;;5.73;;
21166;SDS011;10741;52.272;9.580;2022-07-22T04:16:06;6.27;;;5.77;;
21166;SDS011;10741;52.272;9.580;2022-07-22T04:18:32;8.13;;;5.90;;
21166;SDS011;10741;52.272;9.580;2022-07-22T04:20:58;6.87;;;5.17;;
21166;SDS011;10741;52.272;9.580;2022-07-22T04:23:24;7.63;;;5.17;;
21166;SDS011;10741;52.272;9.580;2022-07-22T04:25:51;5.37;;;4.87;;
21166;SDS011;10741;52.272;9.580;2022-07-22T04:28:16;6.03;;;4.83;;
21166;SDS011;10741;52.272;9.580;2022-07-22T04:30:42;6.40;;;5.33;;
21166;SDS011;10741;52.272;9.580;2022-07-22T04:33:08;6.67;;;5.37;;
21166;SDS011;10741;52.272;9.580;2022-07-22T04:35:34;6.17;;;5.23;;
21166;SDS011;10741;52.272;9.580;2022-07-22T04:37:59;7.63;;;4.93;;
21166;SDS011;10741;52.272;9.580;2022-07-22T04:40:25;6.83;;;4.83;;
21166;SDS011;10741;52.272;9.580;2022-07-22T04:42:51;6.00;;;4.93;;
21166;SDS011;10741;52.272;9.580;2022-07-22T04:45:17;5.83;;;5.03;;
21166;SDS011;10741;52.272;9.580;2022-07-22T04:47:42;7.83;;;4.00;;
21166;SDS011;10741;52.272;9.580;2022-07-22T04:50:08;5.77;;;4.43;;
21166;SDS011;10741;52.272;9.580;2022-07-22T04:52:34;6.73;;;4.30;;
21166;SDS011;10741;52.272;9.580;2022-07-22T04:55:00;4.93;;;4.30;;
21166;SDS011;10741;52.272;9.580;2022-07-22T04:57:26;4.53;;;3.70;;
21166;SDS011;10741;52.272;9.580;2022-07-22T04:59:52;5.83;;;3.53;;
21166;SDS011;10741;52.272;9.580;2022-07-22T05:02:18;5.57;;;3.17;;
21166;SDS011;10741;52.272;9.580;2022-07-22T05:04:44;4.97;;;3.10;;
21166;SDS011;10741;52.272;9.580;2022-07-22T05:07:10;4.53;;;3.50;;
21166;SDS011;10741;52.272;9.580;2022-07-22T05:09:38;5.33;;;3.00;;
21166;SDS011;10741;52.272;9.580;2022-07-22T05:12:04;3.63;;;2.47;;
21166;SDS011;10741;52.272;9.580;2022-07-22T05:14:30;4.37;;;3.00;;
21166;SDS011;10741;52.272;9.580;2022-07-22T05:17:02;5.17;;;2.63;;
21166;SDS011;10741;52.272;9.580;2022-07-22T05:19:27;3.27;;;2.50;;
21166;SDS011;10741;52.272;9.580;2022-07-22T05:21:53;5.20;;;2.67;;
21166;SDS011;10741;52.272;9.580;2022-07-22T05:24:19;2.90;;;2.67;;
21166;SDS011;10741;52.272;9.580;2022-07-22T05:26:45;4.07;;;2.10;;
21166;SDS011;10741;52.272;9.580;2022-07-22T05:29:11;4.43;;;2.40;;
21166;SDS011;10741;52.272;9.580;2022-07-22T05:31:36;5.13;;;2.70;;
21166;SDS011;10741;52.272;9.580;2022-07-22T05:34:02;4.23;;;2.10;;
21166;SDS011;10741;52.272;9.580;2022-07-22T05:36:28;3.90;;;2.20;;
21166;SDS011;10741;52.272;9.580;2022-07-22T05:45:42;3.50;;;2.40;;
21166;SDS011;10741;52.272;9.580;2022-07-22T05:48:08;4.13;;;2.50;;
21166;SDS011;10741;52.272;9.580;2022-07-22T05:50:33;4.30;;;2.60;;
21166;SDS011;10741;52.272;9.580;2022-07-22T05:53:03;6.00;;;2.53;;
21166;SDS011;10741;52.272;9.580;2022-07-22T05:59:20;5.33;;;4.20;;
21166;SDS011;10741;52.272;9.580;2022-07-22T06:01:46;5.90;;;4.53;;
21166;SDS011;10741;52.272;9.580;2022-07-22T06:04:12;7.37;;;4.70;;
21166;SDS011;10741;52.272;9.580;2022-07-22T06:06:38;7.20;;;4.80;;
21166;SDS011;10741;52.272;9.580;2022-07-22T06:09:04;7.20;;;4.03;;
21166;SDS011;10741;52.272;9.580;2022-07-22T06:11:30;7.60;;;4.83;;
21166;SDS011;10741;52.272;9.580;2022-07-22T06:13:56;7.17;;;4.77;;
21166;SDS011;10741;52.272;9.580;2022-07-22T06:16:22;8.17;;;3.83;;
21166;SDS011;10741;52.272;9.580;2022-07-22T06:18:47;5.90;;;3.97;;
21166;SDS011;10741;52.272;9.580;2022-07-22T06:21:13;4.30;;;3.20;;
21166;SDS011;10741;52.272;9.580;2022-07-22T06:23:39;3.97;;;2.97;;
21166;SDS011;10741;52.272;9.580;2022-07-22T06:26:05;6.93;;;2.90;;
21166;SDS011;10741;52.272;9.580;2022-07-22T06:28:31;7.43;;;2.47;;
21166;SDS011;10741;52.272;9.580;2022-07-22T06:30:56;5.10;;;2.30;;
21166;SDS011;10741;52.272;9.580;2022-07-22T06:33:22;3.67;;;2.53;;
21166;SDS011;10741;52.272;9.580;2022-07-22T06:35:48;4.37;;;2.60;;
21166;SDS011;10741;52.272;9.580;2022-07-22T06:38:14;3.93;;;3.00;;
21166;SDS011;10741;52.272;9.580;2022-07-22T06:40:40;4.50;;;2.30;;
21166;SDS011;10741;52.272;9.580;2022-07-22T06:43:05;5.73;;;2.87;;
21166;SDS011;10741;52.272;9.580;2022-07-22T06:45:31;4.87;;;2.70;;
21166;SDS011;10741;52.272;9.580;2022-07-22T06:47:57;3.73;;;2.30;;
21166;SDS011;10741;52.272;9.580;2022-07-22T06:50:23;6.43;;;2.47;;
21166;SDS011;10741;52.272;9.580;2022-07-22T06:52:49;4.53;;;2.20;;
21166;SDS011;10741;52.272;9.580;2022-07-22T06:55:15;5.43;;;2.63;;
21166;SDS011;10741;52.272;9.580;2022-07-22T06:57:41;3.83;;;2.60;;
21166;SDS011;10741;52.272;9.580;2022-07-22T07:00:07;4.00;;;2.80;;
21166;SDS011;10741;52.272;9.580;2022-07-22T07:02:34;5.20;;;2.83;;
21166;SDS011;10741;52.272;9.580;2022-07-22T07:04:59;6.60;;;2.87;;
21166;SDS011;10741;52.272;9.580;2022-07-22T07:07:25;3.23;;;2.93;;
21166;SDS011;10741;52.272;9.580;2022-07-22T07:09:51;3.53;;;2.57;;
21166;SDS011;10741;52.272;9.580;2022-07-22T07:12:17;2.93;;;2.63;;
21166;SDS011;10741;52.272;9.580;2022-07-22T07:14:43;2.70;;;2.40;;
21166;SDS011;10741;52.272;9.580;2022-07-22T07:17:08;2.90;;;2.40;;
21166;SDS011;10741;52.272;9.580;2022-07-22T07:19:34;3.00;;;2.70;;
21166;SDS011;10741;52.272;9.580;2022-07-22T07:22:00;4.70;;;2.90;;
21166;SDS011;10741;52.272;9.580;2022-07-22T07:24:26;5.70;;;2.60;;
21166;SDS011;10741;52.272;9.580;2022-07-22T07:26:51;4.00;;;2.60;;
21166;SDS011;10741;52.272;9.580;2022-07-22T07:29:17;4.47;;;2.50;;
21166;SDS011;10741;52.272;9.580;2022-07-22T07:31:43;2.80;;;2.10;;
21166;SDS011;10741;52.272;9.580;2022-07-22T07:34:08;2.87;;;2.53;;
21166;SDS011;10741;52.272;9.580;2022-07-22T07:36:34;4.37;;;2.73;;
21166;SDS011;10741;52.272;9.580;2022-07-22T07:39:00;6.10;;;2.60;;
21166;SDS011;10741;52.272;9.580;2022-07-22T07:41:26;3.57;;;2.83;;
21166;SDS011;10741;52.272;9.580;2022-07-22T07:43:51;6.13;;;3.23;;
21166;SDS011;10741;52.272;9.580;2022-07-22T07:46:17;4.20;;;2.53;;
21166;SDS011;10741;52.272;9.580;2022-07-22T07:48:43;5.63;;;2.80;;
21166;SDS011;10741;52.272;9.580;2022-07-22T07:51:10;5.97;;;2.60;;
21166;SDS011;10741;52.272;9.580;2022-07-22T07:53:36;6.20;;;3.27;;
21166;SDS011;10741;52.272;9.580;2022-07-22T07:56:01;7.97;;;2.87;;
21166;SDS011;10741;52.272;9.580;2022-07-22T07:58:27;4.93;;;2.70;;
21166;SDS011;10741;52.272;9.580;2022-07-22T08:00:53;3.93;;;2.53;;
21166;SDS011;10741;52.272;9.580;2022-07-22T08:03:19;4.43;;;2.87;;
21166;SDS011;10741;52.272;9.580;2022-07-22T08:05:45;10.07;;;2.93;;
21166;SDS011;10741;52.272;9.580;2022-07-22T08:08:10;7.10;;;2.80;;
21166;SDS011;10741;52.272;9.580;2022-07-22T08:10:37;7.43;;;2.80;;
21166;SDS011;10741;52.272;9.580;2022-07-22T08:13:04;8.93;;;2.93;;
21166;SDS011;10741;52.272;9.580;2022-07-22T08:15:29;7.30;;;2.90;;
21166;SDS011;10741;52.272;9.580;2022-07-22T08:17:56;7.20;;;3.00;;
21166;SDS011;10741;52.272;9.580;2022-07-22T08:20:24;4.90;;;1.87;;
21166;SDS011;10741;52.272;9.580;2022-07-22T08:22:50;5.77;;;2.53;;
21166;SDS011;10741;52.272;9.580;2022-07-22T08:25:17;5.83;;;2.47;;
21166;SDS011;10741;52.272;9.580;2022-07-22T08:27:43;3.83;;;2.73;;
21166;SDS011;10741;52.272;9.580;2022-07-22T08:30:09;7.57;;;2.60;;
21166;SDS011;10741;52.272;9.580;2022-07-22T08:32:35;7.83;;;2.70;;
21166;SDS011;10741;52.272;9.580;2022-07-22T08:35:02;8.27;;;3.20;;
21166;SDS011;10741;52.272;9.580;2022-07-22T08:37:29;8.17;;;2.90;;
21166;SDS011;10741;52.272;9.580;2022-07-22T08:39:56;4.97;;;2.70;;
21166;SDS011;10741;52.272;9.580;2022-07-22T08:42:23;6.10;;;2.50;;
21166;SDS011;10741;52.272;9.580;2022-07-22T08:44:50;8.37;;;2.03;;
21166;SDS011;10741;52.272;9.580;2022-07-22T08:47:22;3.40;;;2.07;;
21166;SDS011;10741;52.272;9.580;2022-07-22T08:49:48;8.27;;;2.80;;
21166;SDS011;10741;52.272;9.580;2022-07-22T08:52:14;6.20;;;2.33;;
21166;SDS011;10741;52.272;9.580;2022-07-22T08:54:40;8.93;;;2.93;;
21166;SDS011;10741;52.272;9.580;2022-07-22T08:57:06;6.03;;;2.80;;
21166;SDS011;10741;52.272;9.580;2022-07-22T08:59:33;7.33;;;2.50;;
21166;SDS011;10741;52.272;9.580;2022-07-22T09:02:12;5.93;;;2.77;;
21166;SDS011;10741;52.272;9.580;2022-07-22T09:05:01;6.43;;;3.07;;
21166;SDS011;10741;52.272;9.580;2022-07-22T09:07:32;7.63;;;3.00;;
21166;SDS011;10741;52.272;9.580;2022-07-22T09:10:03;3.97;;;2.53;;
21166;SDS011;10741;52.272;9.580;2022-07-22T09:12:31;5.27;;;2.93;;
21166;SDS011;10741;52.272;9.580;2022-07-22T09:14:58;4.77;;;2.50;;
21166;SDS011;10741;52.272;9.580;2022-07-22T09:19:53;4.33;;;1.80;;
21166;SDS011;10741;52.272;9.580;2022-07-22T09:22:53;4.40;;;2.03;;
21166;SDS011;10741;52.272;9.580;2022-07-22T09:25:20;3.33;;;2.17;;
21166;SDS011;10741;52.272;9.580;2022-07-22T09:27:56;4.03;;;2.30;;
21166;SDS011;10741;52.272;9.580;2022-07-22T09:30:39;7.03;;;2.73;;
21166;SDS011;10741;52.272;9.580;2022-07-22T09:33:10;3.63;;;2.37;;
21166;SDS011;10741;52.272;9.580;2022-07-22T09:35:36;6.07;;;2.30;;
21166;SDS011;10741;52.272;9.580;2022-07-22T09:38:04;5.27;;;2.73;;
21166;SDS011;10741;52.272;9.580;2022-07-22T09:40:31;3.47;;;2.43;;
21166;SDS011;10741;52.272;9.580;2022-07-22T09:43:06;3.47;;;3.17;;
21166;SDS011;10741;52.272;9.580;2022-07-22T09:45:43;3.53;;;2.57;;
21166;SDS011;10741;52.272;9.580;2022-07-22T09:48:19;2.97;;;2.20;;
21166;SDS011;10741;52.272;9.580;2022-07-22T09:50:47;2.87;;;1.83;;
21166;SDS011;10741;52.272;9.580;2022-07-22T09:53:15;4.30;;;2.77;;
21166;SDS011;10741;52.272;9.580;2022-07-22T09:55:42;6.17;;;1.97;;
21166;SDS011;10741;52.272;9.580;2022-07-22T09:58:08;2.53;;;2.33;;
21166;SDS011;10741;52.272;9.580;2022-07-22T10:00:36;3.10;;;2.27;;
21166;SDS011;10741;52.272;9.580;2022-07-22T10:03:04;3.33;;;1.80;;
21166;SDS011;10741;52.272;9.580;2022-07-22T10:05:36;4.30;;;2.43;;
21166;SDS011;10741;52.272;9.580;2022-07-22T10:08:04;3.77;;;1.90;;
21166;SDS011;10741;52.272;9.580;2022-07-22T10:10:31;2.90;;;2.03;;
21166;SDS011;10741;52.272;9.580;2022-07-22T10:12:58;3.70;;;2.37;;
21166;SDS011;10741;52.272;9.580;2022-07-22T10:15:25;3.77;;;2.10;;
21166;SDS011;10741;52.272;9.580;2022-07-22T10:17:57;2.83;;;2.57;;
21166;SDS011;10741;52.272;9.580;2022-07-22T10:20:29;5.13;;;2.80;;
21166;SDS011;10741;52.272;9.580;2022-07-22T10:23:03;5.07;;;2.80;;
21166;SDS011;10741;52.272;9.580;2022-07-22T10:25:47;4.53;;;3.07;;
21166;SDS011;10741;52.272;9.580;2022-07-22T10:30:48;4.27;;;2.93;;
21166;SDS011;10741;52.272;9.580;2022-07-22T10:33:15;3.87;;;2.43;;
21166;SDS011;10741;52.272;9.580;2022-07-22T10:38:19;3.80;;;2.47;;
21166;SDS011;10741;52.272;9.580;2022-07-22T10:40:50;5.60;;;2.67;;
21166;SDS011;10741;52.272;9.580;2022-07-22T10:43:27;5.80;;;3.47;;
21166;SDS011;10741;52.272;9.580;2022-07-22T10:46:08;7.60;;;3.20;;
21166;SDS011;10741;52.272;9.580;2022-07-22T10:51:08;6.23;;;3.30;;
21166;SDS011;10741;52.272;9.580;2022-07-22T10:53:44;5.30;;;3.00;;
21166;SDS011;10741;52.272;9.580;2022-07-22T10:56:20;7.23;;;3.43;;
21166;SDS011;10741;52.272;9.580;2022-07-22T11:01:26;5.57;;;3.00;;
21166;SDS011;10741;52.272;9.580;2022-07-22T11:04:07;6.23;;;3.40;;
21166;SDS011;10741;52.272;9.580;2022-07-22T11:06:33;7.53;;;3.50;;
21166;SDS011;10741;52.272;9.580;2022-07-22T11:09:01;4.63;;;3.33;;
21166;SDS011;10741;52.272;9.580;2022-07-22T11:11:33;3.97;;;3.00;;
21166;SDS011;10741;52.272;9.580;2022-07-22T11:14:16;4.97;;;3.43;;
21166;SDS011;10741;52.272;9.580;2022-07-22T11:19:26;4.70;;;3.27;;
21166;SDS011;10741;52.272;9.580;2022-07-22T11:22:00;5.93;;;3.20;;
21166;SDS011;10741;52.272;9.580;2022-07-22T11:24:29;5.47;;;3.50;;
21166;SDS011;10741;52.272;9.580;2022-07-22T11:26:56;6.00;;;3.47;;
21166;SDS011;10741;52.272;9.580;2022-07-22T11:29:33;4.93;;;3.27;;
21166;SDS011;10741;52.272;9.580;2022-07-22T11:32:06;7.37;;;4.40;;
21166;SDS011;10741;52.272;9.580;2022-07-22T11:34:35;4.90;;;4.10;;
21166;SDS011;10741;52.272;9.580;2022-07-22T11:37:02;6.00;;;4.60;;
21166;SDS011;10741;52.272;9.580;2022-07-22T11:39:29;7.23;;;3.43;;
21166;SDS011;10741;52.272;9.580;2022-07-22T11:41:56;8.07;;;3.60;;
21166;SDS011;10741;52.272;9.580;2022-07-22T11:44:27;8.87;;;3.40;;
21166;SDS011;10741;52.272;9.580;2022-07-22T11:46:55;5.30;;;3.50;;
21166;SDS011;10741;52.272;9.580;2022-07-22T11:49:23;6.97;;;3.70;;
21166;SDS011;10741;52.272;9.580;2022-07-22T11:51:50;6.50;;;3.67;;
21166;SDS011;10741;52.272;9.580;2022-07-22T11:54:17;6.77;;;3.80;;
21166;SDS011;10741;52.272;9.580;2022-07-22T11:56:43;6.00;;;3.50;;
21166;SDS011;10741;52.272;9.580;2022-07-22T11:59:11;6.47;;;3.27;;
21166;SDS011;10741;52.272;9.580;2022-07-22T12:01:38;7.50;;;2.83;;
21166;SDS011;10741;52.272;9.580;2022-07-22T12:04:06;5.57;;;3.43;;
21166;SDS011;10741;52.272;9.580;2022-07-22T12:06:34;6.93;;;3.43;;
21166;SDS011;10741;52.272;9.580;2022-07-22T12:11:37;7.20;;;3.50;;
21166;SDS011;10741;52.272;9.580;2022-07-22T12:14:12;5.30;;;3.27;;
21166;SDS011;10741;52.272;9.580;2022-07-22T12:16:40;6.03;;;2.80;;
21166;SDS011;10741;52.272;9.580;2022-07-22T12:19:10;5.47;;;3.23;;
21166;SDS011;10741;52.272;9.580;2022-07-22T12:27:04;4.97;;;3.60;;
21166;SDS011;10741;52.272;9.580;2022-07-22T12:32:10;6.43;;;4.00;;
21166;SDS011;10741;52.272;9.580;2022-07-22T12:35:00;5.73;;;3.10;;
21166;SDS011;10741;52.272;9.580;2022-07-22T12:37:32;5.17;;;3.47;;
21166;SDS011;10741;52.272;9.580;2022-07-22T12:42:30;8.77;;;3.77;;
21166;SDS011;10741;52.272;9.580;2022-07-22T12:45:11;6.03;;;3.30;;
21166;SDS011;10741;52.272;9.580;2022-07-22T12:52:49;8.10;;;3.40;;
21166;SDS011;10741;52.272;9.580;2022-07-22T12:55:16;4.77;;;2.87;;
21166;SDS011;10741;52.272;9.580;2022-07-22T12:57:42;7.47;;;3.17;;
21166;SDS011;10741;52.272;9.580;2022-07-22T13:00:08;5.07;;;3.07;;
21166;SDS011;10741;52.272;9.580;2022-07-22T13:02:36;6.53;;;3.10;;
21166;SDS011;10741;52.272;9.580;2022-07-22T13:05:01;7.40;;;3.10;;
21166;SDS011;10741;52.272;9.580;2022-07-22T13:07:28;6.33;;;3.50;;
21166;SDS011;10741;52.272;9.580;2022-07-22T13:09:53;5.93;;;3.40;;
21166;SDS011;10741;52.272;9.580;2022-07-22T13:12:19;4.63;;;2.97;;
21166;SDS011;10741;52.272;9.580;2022-07-22T13:14:45;8.07;;;3.50;;
21166;SDS011;10741;52.272;9.580;2022-07-22T13:17:10;6.33;;;2.90;;
21166;SDS011;10741;52.272;9.580;2022-07-22T13:19:37;6.27;;;3.80;;
21166;SDS011;10741;52.272;9.580;2022-07-22T13:22:06;6.23;;;3.80;;
21166;SDS011;10741;52.272;9.580;2022-07-22T13:24:31;5.17;;;3.33;;
21166;SDS011;10741;52.272;9.580;2022-07-22T13:26:58;9.60;;;4.20;;
21166;SDS011;10741;52.272;9.580;2022-07-22T13:29:24;7.17;;;3.93;;
21166;SDS011;10741;52.272;9.580;2022-07-22T13:31:50;7.97;;;3.97;;
21166;SDS011;10741;52.272;9.580;2022-07-22T13:34:16;6.50;;;4.77;;
21166;SDS011;10741;52.272;9.580;2022-07-22T13:36:42;5.87;;;3.77;;
21166;SDS011;10741;52.272;9.580;2022-07-22T13:39:08;7.23;;;3.90;;
21166;SDS011;10741;52.272;9.580;2022-07-22T13:41:34;9.20;;;4.23;;
21166;SDS011;10741;52.272;9.580;2022-07-22T13:44:00;5.50;;;4.33;;
21166;SDS011;10741;52.272;9.580;2022-07-22T13:46:25;7.57;;;4.57;;
21166;SDS011;10741;52.272;9.580;2022-07-22T13:48:51;7.20;;;4.67;;
21166;SDS011;10741;52.272;9.580;2022-07-22T13:51:18;4.37;;;3.80;;
21166;SDS011;10741;52.272;9.580;2022-07-22T13:53:44;4.40;;;3.73;;
21166;SDS011;10741;52.272;9.580;2022-07-22T13:56:10;6.07;;;3.83;;
21166;SDS011;10741;52.272;9.580;2022-07-22T13:58:37;5.43;;;3.93;;
21166;SDS011;10741;52.272;9.580;2022-07-22T14:01:03;5.30;;;3.93;;
21166;SDS011;10741;52.272;9.580;2022-07-22T14:03:32;6.33;;;4.20;;
21166;SDS011;10741;52.272;9.580;2022-07-22T14:05:58;7.60;;;4.13;;
21166;SDS011;10741;52.272;9.580;2022-07-22T14:08:24;6.30;;;4.57;;
21166;SDS011;10741;52.272;9.580;2022-07-22T14:10:50;8.63;;;4.20;;
21166;SDS011;10741;52.272;9.580;2022-07-22T14:13:15;8.17;;;4.30;;
21166;SDS011;10741;52.272;9.580;2022-07-22T14:15:41;6.77;;;4.40;;
21166;SDS011;10741;52.272;9.580;2022-07-22T14:18:07;7.50;;;4.60;;
21166;SDS011;10741;52.272;9.580;2022-07-22T14:20:34;8.30;;;4.33;;
21166;SDS011;10741;52.272;9.580;2022-07-22T14:23:01;8.27;;;4.90;;
21166;SDS011;10741;52.272;9.580;2022-07-22T14:25:28;8.97;;;4.40;;
21166;SDS011;10741;52.272;9.580;2022-07-22T14:27:54;6.10;;;4.73;;
21166;SDS011;10741;52.272;9.580;2022-07-22T14:30:19;8.03;;;4.53;;
21166;SDS011;10741;52.272;9.580;2022-07-22T14:32:45;7.40;;;4.70;;
21166;SDS011;10741;52.272;9.580;2022-07-22T14:35:11;8.20;;;5.07;;
21166;SDS011;10741;52.272;9.580;2022-07-22T14:37:37;7.53;;;5.20;;
21166;SDS011;10741;52.272;9.580;2022-07-22T14:40:03;6.23;;;4.43;;
21166;SDS011;10741;52.272;9.580;2022-07-22T14:42:29;6.23;;;4.40;;
21166;SDS011;10741;52.272;9.580;2022-07-22T14:44:55;5.27;;;4.30;;
21166;SDS011;10741;52.272;9.580;2022-07-22T14:47:21;7.07;;;5.20;;
21166;SDS011;10741;52.272;9.580;2022-07-22T14:49:47;9.30;;;5.03;;
21166;SDS011;10741;52.272;9.580;2022-07-22T14:52:15;9.67;;;4.90;;
21166;SDS011;10741;52.272;9.580;2022-07-22T14:54:41;12.80;;;5.27;;
21166;SDS011;10741;52.272;9.580;2022-07-22T14:57:07;8.73;;;5.17;;
21166;SDS011;10741;52.272;9.580;2022-07-22T14:59:33;8.33;;;5.27;;
21166;SDS011;10741;52.272;9.580;2022-07-22T15:01:58;9.57;;;5.03;;
21166;SDS011;10741;52.272;9.580;2022-07-22T15:04:24;8.57;;;5.53;;
21166;SDS011;10741;52.272;9.580;2022-07-22T15:06:50;6.93;;;4.90;;
21166;SDS011;10741;52.272;9.580;2022-07-22T15:09:15;8.70;;;5.27;;
21166;SDS011;10741;52.272;9.580;2022-07-22T15:11:41;9.37;;;5.77;;
21166;SDS011;10741;52.272;9.580;2022-07-22T15:14:07;10.87;;;5.70;;
21166;SDS011;10741;52.272;9.580;2022-07-22T15:16:33;10.43;;;5.57;;
21166;SDS011;10741;52.272;9.580;2022-07-22T15:18:59;9.97;;;5.13;;
21166;SDS011;10741;52.272;9.580;2022-07-22T15:21:25;7.77;;;5.43;;
21166;SDS011;10741;52.272;9.580;2022-07-22T15:23:50;7.33;;;5.63;;
21166;SDS011;10741;52.272;9.580;2022-07-22T15:26:16;9.93;;;4.70;;
21166;SDS011;10741;52.272;9.580;2022-07-22T15:28:42;16.83;;;6.90;;
21166;SDS011;10741;52.272;9.580;2022-07-22T15:31:08;6.57;;;5.80;;
21166;SDS011;10741;52.272;9.580;2022-07-22T15:33:36;7.47;;;5.80;;